Time;durP1;ratioP1;P1;durP2;ratioP2;P2;SDS_P1;SDS_P2;PMS_P1;PMS_P2;Temp;Humidity;BMP_temperature;BMP_pressure;BME280_temperature;BME280_humidity;BME280_pressure;Samples;Min_cycle;Max_cycle;Signal;HPM_P1;HPM_P2
2022/05/16 00:00:31;;;;;;;20.08;8.27;;;10.10;99.90;;;;;;5078654;28;20100;-80
2022/05/16 00:03:00;;;;;;;16.67;7.70;;;10.10;99.90;;;;;;5078604;28;20045;-80
2022/05/16 00:05:26;;;;;;;18.10;7.88;;;10.20;99.90;;;;;;5078773;28;20065;-80
2022/05/16 00:07:53;;;;;;;17.35;7.90;;;10.20;99.90;;;;;;5078961;28;20050;-80
2022/05/16 00:10:19;;;;;;;19.55;7.03;;;10.30;99.90;;;;;;5079094;28;20029;-80
2022/05/16 00:12:45;;;;;;;15.32;7.38;;;10.20;99.90;;;;;;5078269;28;20032;-81
2022/05/16 00:15:13;;;;;;;22.73;7.93;;;10.30;99.90;;;;;;5078800;28;20084;-80
2022/05/16 00:17:39;;;;;;;15.88;7.10;;;10.20;99.90;;;;;;5079368;28;20051;-80
2022/05/16 00:20:06;;;;;;;15.38;6.88;;;10.20;99.90;;;;;;5078691;28;20041;-80
2022/05/16 00:22:32;;;;;;;16.88;7.32;;;10.20;99.90;;;;;;5077470;28;20051;-80
2022/05/16 00:24:57;;;;;;;21.15;7.63;;;10.30;99.90;;;;;;5076754;28;20041;-80
2022/05/16 00:27:23;;;;;;;19.90;7.30;;;10.40;99.90;;;;;;5076760;28;20083;-80
2022/05/16 00:29:49;;;;;;;13.85;6.75;;;10.50;99.90;;;;;;5077617;28;20044;-80
2022/05/16 00:32:16;;;;;;;11.52;6.22;;;10.50;99.90;;;;;;5078392;28;20041;-80
2022/05/16 00:34:41;;;;;;;15.80;6.60;;;10.50;99.90;;;;;;5077106;28;20064;-80
2022/05/16 00:37:07;;;;;;;16.10;6.43;;;10.50;99.90;;;;;;5075215;28;20041;-80
2022/05/16 00:39:32;;;;;;;12.07;5.28;;;10.50;99.90;;;;;;5075638;28;20037;-80
2022/05/16 00:41:58;;;;;;;14.52;5.80;;;10.50;99.90;;;;;;5077704;28;20049;-80
2022/05/16 00:44:24;;;;;;;11.77;5.15;;;10.60;99.90;;;;;;5077094;28;20096;-80
2022/05/16 00:46:51;;;;;;;12.65;5.07;;;10.50;99.90;;;;;;5076739;28;20037;-80
2022/05/16 00:49:29;;;;;;;17.38;6.35;;;10.50;99.90;;;;;;5075700;28;20045;-80
2022/05/16 00:52:03;;;;;;;11.32;5.55;;;10.50;99.90;;;;;;5076075;28;20069;-80
2022/05/16 00:54:34;;;;;;;13.05;5.63;;;10.60;99.90;;;;;;5077035;28;20059;-80
2022/05/16 00:57:04;;;;;;;13.73;5.70;;;10.60;99.90;;;;;;5077365;28;20063;-80
2022/05/16 00:59:53;;;;;;;11.55;5.45;;;10.50;99.90;;;;;;5077387;28;20052;-80
2022/05/16 01:05:06;;;;;;;11.98;4.90;;;10.50;99.90;;;;;;5037686;28;20085;-80
2022/05/16 01:07:39;;;;;;;13.98;5.57;;;10.50;99.90;;;;;;5038050;28;20056;-80
2022/05/16 01:10:07;;;;;;;12.82;4.97;;;10.50;99.90;;;;;;5038017;28;20037;-80
2022/05/16 01:12:38;;;;;;;7.60;4.47;;;10.40;99.90;;;;;;5037712;28;20037;-80
2022/05/16 01:15:09;;;;;;;12.18;4.45;;;10.40;99.90;;;;;;5038142;28;20038;-80
2022/05/16 01:17:34;;;;;;;11.18;5.13;;;11.10;99.90;;;;;;5035081;28;20061;-80
2022/05/16 01:20:00;;;;;;;8.10;4.95;;;10.40;99.90;;;;;;5032198;28;20446;-80
2022/05/16 01:22:31;;;;;;;14.15;5.05;;;10.40;99.90;;;;;;5034571;28;20105;-80
2022/05/16 01:25:01;;;;;;;10.52;4.97;;;10.30;99.90;;;;;;5035655;28;20060;-80
2022/05/16 01:27:27;;;;;;;10.27;4.47;;;10.30;99.90;;;;;;5038565;28;20049;-81
2022/05/16 01:29:52;;;;;;;11.00;4.60;;;10.30;99.90;;;;;;5036952;28;20096;-80
2022/05/16 01:32:18;;;;;;;10.13;4.93;;;10.30;99.90;;;;;;5037286;28;20084;-80
2022/05/16 01:34:44;;;;;;;10.30;4.78;;;10.20;99.90;;;;;;5037262;28;20042;-80
2022/05/16 01:37:10;;;;;;;17.45;4.63;;;10.30;99.90;;;;;;5036624;28;20050;-80
2022/05/16 01:39:35;;;;;;;8.40;4.43;;;10.30;99.90;;;;;;5033934;28;20082;-80
2022/05/16 01:42:02;;;;;;;14.55;4.70;;;10.20;99.90;;;;;;5037534;28;20057;-80
2022/05/16 01:44:27;;;;;;;7.63;4.38;;;10.20;99.90;;;;;;5034610;28;20139;-80
2022/05/16 01:46:53;;;;;;;8.82;4.40;;;10.20;99.90;;;;;;5034939;28;20030;-80
2022/05/16 01:49:18;;;;;;;11.43;4.45;;;10.30;99.90;;;;;;5036547;28;20029;-80
2022/05/16 01:51:44;;;;;;;14.57;4.80;;;10.30;99.90;;;;;;5037489;28;20037;-80
2022/05/16 01:54:10;;;;;;;9.65;4.47;;;10.20;99.90;;;;;;5036800;28;20037;-80
2022/05/16 01:56:36;;;;;;;11.10;4.43;;;10.30;99.90;;;;;;5037944;28;20041;-80
2022/05/16 01:59:04;;;;;;;9.48;4.15;;;10.20;99.90;;;;;;5035327;28;20026;-80
2022/05/16 02:01:30;;;;;;;9.40;4.22;;;10.20;99.90;;;;;;5065574;28;20080;-80
2022/05/16 02:03:56;;;;;;;10.75;3.72;;;10.20;99.90;;;;;;5075049;28;20043;-80
2022/05/16 02:06:22;;;;;;;6.65;3.70;;;10.20;99.90;;;;;;5075594;28;20060;-80
2022/05/16 02:08:48;;;;;;;12.20;4.97;;;10.10;99.90;;;;;;5074624;28;20041;-80
2022/05/16 02:11:14;;;;;;;8.57;4.20;;;10.10;99.90;;;;;;5073638;28;20053;-80
2022/05/16 02:13:41;;;;;;;10.20;3.95;;;10.10;99.90;;;;;;5073446;28;20051;-80
2022/05/16 02:16:08;;;;;;;11.32;3.65;;;10.20;99.90;;;;;;5072876;28;20060;-80
2022/05/16 02:18:35;;;;;;;11.02;3.38;;;10.10;99.90;;;;;;5073387;28;20482;-80
2022/05/16 02:26:29;;;;;;;7.35;3.20;;;10.20;99.90;;;;;;5076313;28;20083;-80
2022/05/16 02:28:55;;;;;;;9.32;3.35;;;10.20;99.90;;;;;;5076929;28;20036;-80
2022/05/16 02:31:21;;;;;;;9.02;4.05;;;10.20;99.90;;;;;;5077607;28;20032;-80
2022/05/16 02:33:48;;;;;;;6.40;3.08;;;10.10;99.90;;;;;;5077008;28;20043;-80
2022/05/16 02:36:13;;;;;;;8.07;2.88;;;10.10;99.90;;;;;;5077023;28;20056;-80
2022/05/16 02:38:39;;;;;;;9.82;3.47;;;10.20;99.90;;;;;;5077731;28;20041;-80
2022/05/16 02:41:04;;;;;;;6.78;3.38;;;10.10;99.90;;;;;;5075204;28;20047;-80
2022/05/16 02:43:30;;;;;;;8.43;2.90;;;10.20;99.90;;;;;;5075080;28;20048;-80
2022/05/16 02:45:55;;;;;;;11.27;2.63;;;10.20;99.90;;;;;;5074331;28;20081;-80
2022/05/16 02:48:21;;;;;;;7.10;2.88;;;10.30;99.90;;;;;;5075771;28;20036;-80
2022/05/16 02:50:47;;;;;;;8.65;4.20;;;10.30;99.90;;;;;;5074700;28;20056;-80
2022/05/16 02:53:12;;;;;;;7.32;2.60;;;10.40;99.90;;;;;;5074291;28;20045;-80
2022/05/16 02:55:38;;;;;;;6.05;2.30;;;10.30;99.90;;;;;;5072958;28;20512;-80
2022/05/16 02:58:07;;;;;;;7.30;2.40;;;10.30;99.90;;;;;;5075525;28;20037;-81
2022/05/16 03:00:33;;;;;;;8.13;2.58;;;10.40;99.90;;;;;;5074807;28;20052;-81
2022/05/16 03:02:58;;;;;;;7.93;2.20;;;10.50;99.90;;;;;;5073746;28;20037;-81
2022/05/16 03:05:24;;;;;;;8.07;2.33;;;10.40;99.90;;;;;;5075008;28;20108;-81
2022/05/16 03:07:50;;;;;;;6.03;2.30;;;10.40;99.90;;;;;;5075534;28;20036;-81
2022/05/16 03:10:16;;;;;;;11.15;2.70;;;10.40;99.90;;;;;;5075267;28;20025;-81
2022/05/16 03:12:45;;;;;;;9.45;2.85;;;10.60;99.90;;;;;;5075628;28;20032;-81
2022/05/16 03:15:12;;;;;;;6.50;2.00;;;10.50;99.90;;;;;;5074622;28;20036;-81
2022/05/16 03:17:38;;;;;;;6.85;2.63;;;10.50;99.90;;;;;;5074595;28;20037;-82
2022/05/16 03:20:06;;;;;;;5.75;2.22;;;10.40;99.90;;;;;;5072219;28;20037;-81
2022/05/16 03:22:31;;;;;;;4.63;2.30;;;10.50;99.90;;;;;;5072284;28;20045;-81
2022/05/16 03:24:57;;;;;;;5.63;1.92;;;10.40;99.90;;;;;;5074887;28;20045;-82
2022/05/16 03:27:22;;;;;;;7.80;2.38;;;10.40;99.90;;;;;;5076119;28;20045;-79
2022/05/16 03:29:49;;;;;;;6.28;2.05;;;10.50;99.90;;;;;;5075932;28;20052;-79
2022/05/16 03:32:15;;;;;;;6.60;2.20;;;10.50;99.90;;;;;;5079826;28;20040;-79
2022/05/16 03:34:40;;;;;;;7.72;2.20;;;10.50;99.90;;;;;;5080729;28;20040;-79
2022/05/16 03:37:06;;;;;;;7.20;2.42;;;10.50;99.90;;;;;;5080521;28;20021;-79
2022/05/16 03:42:15;;;;;;;7.22;2.10;;;10.40;99.90;;;;;;5059530;28;20049;-78
2022/05/16 03:44:41;;;;;;;3.67;2.00;;;10.30;99.90;;;;;;5059691;28;20038;-79
2022/05/16 03:47:06;;;;;;;4.45;2.13;;;10.30;99.90;;;;;;5060044;28;20036;-79
2022/05/16 03:49:32;;;;;;;8.85;2.40;;;10.30;99.90;;;;;;5070660;28;20048;-81
2022/05/16 03:51:59;;;;;;;4.80;1.98;;;10.40;99.90;;;;;;5079095;28;20057;-81
2022/05/16 03:54:24;;;;;;;5.80;1.98;;;10.40;99.90;;;;;;5079840;28;20045;-81
2022/05/16 03:56:50;;;;;;;4.85;2.08;;;10.50;99.90;;;;;;5076460;28;20044;-82
2022/05/16 03:59:15;;;;;;;6.82;2.20;;;10.50;99.90;;;;;;5077766;28;20053;-81
2022/05/16 04:01:41;;;;;;;5.90;2.60;;;10.50;99.90;;;;;;5078670;28;20105;-82
2022/05/16 04:04:06;;;;;;;9.73;1.90;;;10.60;99.90;;;;;;5077952;28;20080;-80
2022/05/16 04:06:34;;;;;;;3.90;1.75;;;10.60;99.90;;;;;;5078823;28;20033;-79
2022/05/16 04:09:00;;;;;;;10.02;3.60;;;10.60;99.90;;;;;;5079075;28;20080;-79
2022/05/16 04:11:26;;;;;;;8.60;2.38;;;10.60;99.90;;;;;;5077768;28;20033;-81
2022/05/16 04:13:52;;;;;;;5.00;2.05;;;10.80;99.90;;;;;;5079636;28;20052;-81
2022/05/16 04:16:17;;;;;;;6.65;1.98;;;10.80;99.90;;;;;;5076709;28;20040;-81
2022/05/16 04:18:44;;;;;;;7.40;2.30;;;10.80;99.90;;;;;;5078526;28;20040;-81
2022/05/16 04:21:11;;;;;;;8.90;3.88;;;10.80;99.90;;;;;;5079389;28;20037;-81
2022/05/16 04:23:36;;;;;;;5.47;1.80;;;10.90;99.90;;;;;;5080212;28;20060;-81
2022/05/16 04:26:02;;;;;;;6.40;2.08;;;10.90;99.90;;;;;;5080409;28;20051;-82
2022/05/16 04:28:27;;;;;;;7.57;2.33;;;11.00;99.90;;;;;;5078939;28;20096;-82
2022/05/16 04:30:53;;;;;;;6.18;2.13;;;11.10;99.90;;;;;;5077157;28;20049;-80
2022/05/16 04:33:19;;;;;;;5.68;1.80;;;11.10;99.90;;;;;;5079032;28;20032;-79
2022/05/16 04:35:45;;;;;;;6.20;1.65;;;11.20;99.90;;;;;;5079078;28;20029;-79
2022/05/16 04:38:11;;;;;;;8.25;2.20;;;11.30;99.90;;;;;;5078673;28;20060;-79
2022/05/16 04:42:40;;;;;;;6.07;1.80;;;11.30;99.90;;;;;;5078593;28;20045;-79
2022/05/16 04:43:24;;;;;;;72.90;7.05;;;11.30;99.90;;;;;;5078637;28;20051;-79
2022/05/16 04:45:50;;;;;;;11.38;2.85;;;11.30;99.90;;;;;;5078108;28;20049;-79
2022/05/16 04:48:16;;;;;;;4.50;1.80;;;11.40;99.90;;;;;;5077407;28;20037;-79
2022/05/16 04:50:41;;;;;;;9.15;1.92;;;11.40;99.90;;;;;;5077684;28;20084;-80
2022/05/16 04:53:07;;;;;;;4.68;1.77;;;11.40;99.90;;;;;;5075470;28;20091;-80
2022/05/16 04:55:33;;;;;;;10.80;2.88;;;11.40;99.90;;;;;;5075003;28;20044;-80
2022/05/16 04:57:59;;;;;;;7.15;1.98;;;11.50;99.90;;;;;;5078513;28;20029;-80
2022/05/16 05:00:26;;;;;;;6.57;2.20;;;11.50;99.90;;;;;;5076084;28;20087;-80
2022/05/16 05:02:52;;;;;;;5.43;1.80;;;11.60;99.90;;;;;;5074211;28;20041;-80
2022/05/16 05:05:18;;;;;;;5.38;2.58;;;11.60;99.90;;;;;;5077337;28;20032;-80
2022/05/16 05:07:46;;;;;;;5.57;2.05;;;11.70;99.90;;;;;;5062046;28;20101;-80
2022/05/16 05:15:49;;;;;;;8.50;2.50;;;11.90;99.90;;;;;;5055828;28;20136;-80
2022/05/16 05:18:15;;;;;;;10.38;2.30;;;12.10;99.90;;;;;;5054013;28;20036;-80
2022/05/16 05:20:40;;;;;;;5.47;2.17;;;12.20;99.90;;;;;;5054657;28;20041;-81
2022/05/16 05:23:06;;;;;;;6.53;2.50;;;12.40;99.90;;;;;;5072952;28;20063;-80
2022/05/16 05:25:35;;;;;;;5.88;2.03;;;12.60;99.90;;;;;;5073537;28;20041;-81
2022/05/16 05:28:03;;;;;;;9.40;2.58;;;12.70;99.90;;;;;;5078903;28;20056;-80
2022/05/16 05:30:30;;;;;;;4.38;2.00;;;12.90;99.90;;;;;;5075915;28;20020;-80
2022/05/16 05:32:57;;;;;;;8.27;2.08;;;13.30;99.90;;;;;;5077674;28;20048;-80
2022/05/16 05:35:23;;;;;;;11.60;2.58;;;13.80;99.90;;;;;;5078564;28;20040;-80
2022/05/16 05:37:49;;;;;;;8.45;2.55;;;14.30;99.90;;;;;;5077233;28;20067;-80
2022/05/16 05:40:14;;;;;;;7.10;2.58;;;14.60;99.90;;;;;;5078307;28;20085;-80
2022/05/16 05:42:40;;;;;;;5.43;2.13;;;14.80;99.90;;;;;;5078472;28;20092;-80
2022/05/16 05:45:09;;;;;;;7.03;2.35;;;15.40;96.00;;;;;;5077654;28;20048;-80
2022/05/16 05:47:35;;;;;;;10.52;2.10;;;16.00;94.60;;;;;;5077663;28;20048;-80
2022/05/16 05:50:01;;;;;;;6.25;2.58;;;16.00;78.50;;;;;;5078041;28;20021;-80
2022/05/16 05:52:29;;;;;;;10.43;2.47;;;15.50;80.80;;;;;;5077510;28;20059;-80
2022/05/16 05:54:56;;;;;;;6.40;2.50;;;15.10;84.10;;;;;;5076676;28;20073;-80
2022/05/16 05:57:22;;;;;;;5.47;2.25;;;14.80;86.60;;;;;;5078031;28;20045;-80
2022/05/16 05:59:48;;;;;;;6.90;1.95;;;15.10;87.50;;;;;;5078220;28;20021;-80
2022/05/16 06:02:15;;;;;;;6.82;2.30;;;15.50;80.30;;;;;;5077419;28;20041;-80
2022/05/16 06:04:41;;;;;;;3.55;1.70;;;16.00;74.50;;;;;;5078667;28;20107;-81
2022/05/16 06:07:06;;;;;;;6.20;2.45;;;16.40;64.10;;;;;;5077977;28;20037;-80
2022/05/16 06:09:32;;;;;;;7.13;2.35;;;16.40;66.90;;;;;;5077323;28;20081;-80
2022/05/16 06:11:59;;;;;;;7.80;2.25;;;16.70;65.40;;;;;;5077200;28;20021;-80
2022/05/16 06:14:26;;;;;;;6.00;2.10;;;16.80;56.00;;;;;;5077812;28;20049;-80
2022/05/16 06:16:52;;;;;;;7.30;2.28;;;16.50;58.10;;;;;;5076480;28;20025;-80
2022/05/16 06:19:18;;;;;;;7.53;2.60;;;16.30;62.90;;;;;;5072903;28;20050;-80
2022/05/16 06:21:43;;;;;;;8.93;3.13;;;15.80;69.50;;;;;;5076975;28;20053;-80
2022/05/16 06:25:31;;;;;;;8.02;3.20;;;16.20;74.00;;;;;;5073863;28;20060;-80
2022/05/16 06:26:55;;;;;;;8.40;3.08;;;15.20;77.00;;;;;;5076492;28;20084;-80
2022/05/16 06:29:21;;;;;;;8.38;2.47;;;15.10;84.80;;;;;;5076485;28;20040;-80
2022/05/16 06:31:46;;;;;;;6.13;2.30;;;15.60;78.00;;;;;;5075480;28;20037;-80
2022/05/16 06:34:12;;;;;;;8.75;2.85;;;16.20;67.50;;;;;;5076322;28;20067;-81
2022/05/16 06:36:38;;;;;;;7.85;2.20;;;16.50;66.00;;;;;;5074940;28;20032;-80
2022/05/16 06:39:04;;;;;;;11.43;3.50;;;16.90;58.70;;;;;;5075960;28;20052;-80
2022/05/16 06:41:31;;;;;;;9.25;2.47;;;17.70;52.70;;;;;;5076486;28;20017;-80
2022/05/16 06:43:57;;;;;;;8.57;2.45;;;18.00;44.00;;;;;;5075198;28;20067;-81
2022/05/16 06:46:22;;;;;;;8.80;2.63;;;18.40;33.50;;;;;;5074943;28;20045;-80
2022/05/16 06:48:48;;;;;;;9.45;2.85;;;18.50;32.00;;;;;;5075763;28;20032;-81
2022/05/16 06:51:13;;;;;;;10.23;3.05;;;19.50;29.80;;;;;;5075821;28;20085;-81
2022/05/16 06:53:39;;;;;;;9.73;2.40;;;20.30;16.50;;;;;;5076369;28;20025;-81
2022/05/16 06:56:05;;;;;;;11.90;3.20;;;19.70;18.50;;;;;;5076520;28;20028;-81
2022/05/16 06:58:30;;;;;;;7.95;2.58;;;19.40;12.40;;;;;;5077130;28;20049;-81
2022/05/16 07:00:56;;;;;;;14.60;3.28;;;20.30;15.10;;;;;;5075483;28;20041;-81
2022/05/16 07:03:22;;;;;;;7.38;2.25;;;20.20;5.30;;;;;;5076174;28;20094;-81
2022/05/16 07:05:50;;;;;;;10.02;2.50;;;19.70;7.20;;;;;;5075911;28;20064;-82
2022/05/16 07:08:20;;;;;;;7.32;2.50;;;19.50;7.10;;;;;;5076422;28;20024;-81
2022/05/16 07:10:48;;;;;;;8.13;2.92;;;19.70;6.80;;;;;;5076565;28;20056;-81
2022/05/16 07:13:14;;;;;;;10.63;2.72;;;19.50;7.70;;;;;;5075950;28;20063;-81
2022/05/16 07:15:40;;;;;;;8.00;2.50;;;19.70;7.60;;;;;;5076326;28;20021;-83
2022/05/16 07:18:06;;;;;;;9.23;2.50;;;19.60;9.20;;;;;;5076706;28;20033;-81
2022/05/16 07:20:32;;;;;;;9.48;2.45;;;20.10;6.20;;;;;;5076208;28;20047;-81
2022/05/16 07:22:58;;;;;;;6.53;2.00;;;20.10;7.70;;;;;;5075753;28;20085;-81
2022/05/16 07:25:26;;;;;;;13.38;3.10;;;20.40;3.70;;;;;;5075891;28;20044;-81
2022/05/16 07:28:01;;;;;;;13.45;3.20;;;20.40;4.50;;;;;;5075552;28;20021;-81
2022/05/16 07:30:30;;;;;;;5.57;2.13;;;20.50;1.90;;;;;;5067933;28;20056;-76
2022/05/16 07:32:56;;;;;;;10.75;2.50;;;21.20;1.00;;;;;;5063734;28;20096;-80
2022/05/16 07:35:30;;;;;;;6.00;2.67;;;22.10;1.00;;;;;;5068009;28;20036;-80
2022/05/16 07:37:56;;;;;;;5.68;2.70;;;21.40;1.00;;;;;;5067295;28;20073;-80
2022/05/16 07:40:25;;;;;;;6.97;2.40;;;21.30;1.00;;;;;;5066931;28;20064;-80
2022/05/16 07:42:52;;;;;;;7.68;2.80;;;20.90;1.00;;;;;;5067452;28;20045;-80
2022/05/16 07:45:18;;;;;;;8.77;2.63;;;21.40;1.00;;;;;;5067324;28;20041;-80
2022/05/16 07:47:44;;;;;;;7.07;2.40;;;21.30;1.00;;;;;;5067631;28;20064;-80
2022/05/16 07:50:10;;;;;;;8.27;2.72;;;21.60;1.00;;;;;;5065927;28;20040;-80
2022/05/16 07:52:37;;;;;;;10.15;2.40;;;22.30;1.00;;;;;;5067514;28;20041;-80
2022/05/16 07:55:03;;;;;;;11.25;2.90;;;22.20;1.00;;;;;;5065194;28;20045;-81
2022/05/16 07:57:30;;;;;;;10.57;2.65;;;21.90;1.00;;;;;;5066063;28;20092;-80
2022/05/16 07:59:56;;;;;;;6.20;2.28;;;22.10;1.00;;;;;;5065856;28;20128;-81
2022/05/16 08:02:21;;;;;;;10.07;2.85;;;22.40;1.00;;;;;;5066871;28;20045;-81
2022/05/16 08:04:47;;;;;;;9.50;2.85;;;22.50;1.00;;;;;;5066294;28;20135;-80
2022/05/16 08:07:12;;;;;;;13.50;3.17;;;23.00;1.00;;;;;;5064414;28;20044;-80
2022/05/16 08:12:30;;;;;;;10.98;2.25;;;23.20;1.00;;;;;;5062438;28;20048;-80
2022/05/16 08:14:56;;;;;;;8.05;2.35;;;24.10;1.00;;;;;;5061580;28;20044;-77
2022/05/16 08:17:22;;;;;;;7.13;2.35;;;23.30;1.00;;;;;;5056165;28;20124;-78
2022/05/16 08:19:48;;;;;;;9.63;2.55;;;23.10;1.00;;;;;;5063758;28;20083;-81
2022/05/16 08:22:14;;;;;;;10.38;2.65;;;23.10;1.00;;;;;;5072314;28;20040;-81
2022/05/16 08:24:40;;;;;;;7.00;2.40;;;23.40;1.00;;;;;;5068196;28;20053;-81
2022/05/16 08:27:06;;;;;;;7.70;2.55;;;23.40;1.00;;;;;;5068186;28;20037;-81
2022/05/16 08:29:32;;;;;;;9.32;2.13;;;23.50;1.00;;;;;;5062044;28;20044;-80
2022/05/16 08:31:58;;;;;;;8.60;2.83;;;23.60;1.00;;;;;;5059677;28;20107;-81
2022/05/16 08:34:24;;;;;;;9.52;2.25;;;24.10;1.00;;;;;;5058570;28;20060;-80
2022/05/16 08:39:52;;;;;;;8.38;2.78;;;24.30;1.00;;;;;;5057896;28;20052;-81
2022/05/16 08:42:23;;;;;;;7.88;2.55;;;25.10;1.00;;;;;;5061134;28;20048;-80
2022/05/16 08:44:57;;;;;;;6.38;3.08;;;26.50;1.00;;;;;;5059096;28;20099;-76
2022/05/16 08:47:35;;;;;;;10.90;2.70;;;24.70;1.00;;;;;;5053292;28;20097;-75
2022/05/16 08:50:18;;;;;;;10.32;2.60;;;26.00;1.00;;;;;;5053220;28;20045;-75
2022/05/16 08:52:55;;;;;;;11.40;2.53;;;25.10;1.00;;;;;;5052694;28;20414;-75
2022/05/16 08:55:32;;;;;;;12.05;2.60;;;25.20;1.00;;;;;;5052524;28;20044;-74
2022/05/16 08:58:24;;;;;;;12.75;3.30;;;25.50;1.00;;;;;;5052178;28;20485;-74
2022/05/16 09:01:03;;;;;;;7.50;2.40;;;26.30;1.00;;;;;;5052108;28;20053;-75
2022/05/16 09:03:45;;;;;;;12.85;3.13;;;27.40;1.00;;;;;;5052329;28;20048;-74
2022/05/16 09:06:17;;;;;;;4.68;1.77;;;28.00;1.00;;;;;;5052538;28;20072;-74
2022/05/16 09:08:49;;;;;;;10.85;2.35;;;28.00;1.00;;;;;;5052463;28;20045;-78
2022/05/16 09:11:45;;;;;;;16.05;2.83;;;28.40;1.00;;;;;;5051909;28;20504;-74
2022/05/16 09:14:33;;;;;;;10.57;2.47;;;27.40;1.00;;;;;;5055981;28;20052;-80
2022/05/16 09:17:17;;;;;;;11.52;2.47;;;27.10;1.00;;;;;;5056580;28;20056;-80
2022/05/16 09:20:01;;;;;;;6.35;2.78;;;27.50;1.00;;;;;;5058141;28;20052;-80
2022/05/16 09:23:02;;;;;;;9.90;2.70;;;27.30;1.00;;;;;;5057827;28;20041;-80
2022/05/16 09:25:39;;;;;;;11.43;3.20;;;27.70;1.00;;;;;;5051880;28;20049;-80
2022/05/16 09:30:58;;;;;;;11.05;2.97;;;28.80;1.00;;;;;;5057613;28;20041;-80
2022/05/16 09:33:28;;;;;;;7.25;2.15;;;30.60;1.00;;;;;;5059055;28;20041;-80
2022/05/16 09:36:09;;;;;;;11.02;2.60;;;30.20;1.00;;;;;;5059490;28;20075;-80
2022/05/16 09:38:34;;;;;;;6.45;2.00;;;30.10;1.00;;;;;;5059614;28;20056;-81
2022/05/16 09:41:08;;;;;;;11.68;2.50;;;28.60;1.00;;;;;;5057527;28;20044;-80
2022/05/16 09:43:41;;;;;;;7.80;2.38;;;27.60;1.00;;;;;;5057313;28;20045;-80
2022/05/16 09:46:21;;;;;;;8.65;2.60;;;27.20;1.00;;;;;;5057449;28;20373;-80
2022/05/16 09:48:54;;;;;;;6.10;2.00;;;26.30;1.00;;;;;;5057442;28;20064;-80
2022/05/16 09:51:20;;;;;;;8.23;2.13;;;25.90;1.00;;;;;;5055112;28;20057;-75
2022/05/16 09:53:46;;;;;;;9.18;2.53;;;25.60;1.00;;;;;;5054471;28;20045;-77
2022/05/16 09:56:26;;;;;;;8.43;2.17;;;25.50;1.00;;;;;;5036309;28;20047;-77
2022/05/16 09:59:00;;;;;;;13.93;3.05;;;25.60;1.00;;;;;;5050384;28;20069;-77
2022/05/16 10:01:42;;;;;;;9.20;2.15;;;26.50;1.00;;;;;;5050950;28;20060;-77
2022/05/16 10:04:17;;;;;;;6.57;2.58;;;26.30;1.00;;;;;;5050191;28;20040;-76
2022/05/16 10:06:54;;;;;;;;;;;26.10;1.00;;;;;;5051008;28;20408;-77
2022/05/16 10:09:32;;;;;;;8.00;2.63;;;25.70;1.00;;;;;;5052658;28;19916;-77
2022/05/16 10:11:58;;;;;;;5.10;1.98;;;26.20;1.00;;;;;;5053113;28;20056;-77
2022/05/16 10:14:24;;;;;;;8.30;2.58;;;26.70;1.00;;;;;;5033493;28;20056;-78
2022/05/16 10:16:51;;;;;;;7.47;2.15;;;26.90;1.00;;;;;;5051917;28;20037;-77
2022/05/16 10:19:21;;;;;;;8.15;2.45;;;26.60;1.00;;;;;;5052514;28;20064;-78
2022/05/16 10:21:53;;;;;;;11.80;2.83;;;26.70;1.00;;;;;;5035718;28;20095;-80
2022/05/16 10:24:20;;;;;;;9.25;1.90;;;27.20;1.00;;;;;;5058496;28;20057;-80
2022/05/16 10:26:49;;;;;;;13.60;2.80;;;27.40;1.00;;;;;;5059294;28;20075;-80
2022/05/16 10:29:20;;;;;;;8.38;2.55;;;27.50;1.00;;;;;;5060721;28;20045;-80
2022/05/16 10:34:53;;;;;;;8.93;2.40;;;28.40;1.00;;;;;;5057534;28;20430;-81
2022/05/16 10:37:20;;;;;;;6.63;2.60;;;27.60;1.00;;;;;;5058381;28;20045;-80
2022/05/16 10:39:53;;;;;;;11.10;2.50;;;28.20;1.00;;;;;;5059441;28;20397;-81
2022/05/16 10:42:27;;;;;;;9.60;2.60;;;28.90;1.00;;;;;;5058673;28;20084;-81
2022/05/16 10:45:25;;;;;;;12.25;2.67;;;29.40;1.00;;;;;;5059003;28;20056;-80
2022/05/16 10:48:00;;;;;;;9.93;2.38;;;29.50;1.00;;;;;;5058100;28;20049;-80
2022/05/16 10:50:46;;;;;;;8.52;2.17;;;28.60;1.00;;;;;;5058362;28;20052;-80
2022/05/16 10:53:21;;;;;;;9.82;2.22;;;28.30;1.00;;;;;;5058051;28;20037;-81
2022/05/16 10:56:08;;;;;;;10.27;2.47;;;27.70;1.00;;;;;;5058704;28;20049;-80
2022/05/16 10:59:12;;;;;;;8.93;2.60;;;27.80;1.00;;;;;;5058986;28;20133;-80
2022/05/16 11:01:42;;;;;;;8.73;1.88;;;28.30;1.00;;;;;;5058635;28;20057;-81
2022/05/16 11:04:36;;;;;;;7.15;2.20;;;28.40;1.00;;;;;;5058764;28;20121;-81
2022/05/16 11:07:25;;;;;;;7.40;2.20;;;28.70;1.00;;;;;;5058527;28;20084;-80
2022/05/16 11:10:16;;;;;;;9.27;2.15;;;29.30;1.00;;;;;;5044076;28;20069;-81
2022/05/16 11:12:51;;;;;;;10.23;1.90;;;29.00;1.00;;;;;;5058605;28;20055;-81
2022/05/16 11:15:46;;;;;;;14.15;2.95;;;28.60;1.00;;;;;;5058105;28;20519;-81
2022/05/16 11:18:40;;;;;;;11.30;2.00;;;28.30;1.00;;;;;;5058434;28;20055;-80
2022/05/16 11:21:30;;;;;;;7.63;2.30;;;27.90;1.00;;;;;;5059106;28;20037;-81
2022/05/16 11:24:33;;;;;;;9.48;2.10;;;27.50;1.00;;;;;;5057608;28;20388;-81
2022/05/16 11:27:32;;;;;;;10.60;2.00;;;26.90;1.00;;;;;;5060808;28;20120;-80
2022/05/16 11:30:12;;;;;;;6.05;2.08;;;26.50;1.00;;;;;;5058398;28;20088;-81
2022/05/16 11:33:02;;;;;;;9.85;2.33;;;26.40;1.00;;;;;;5058321;28;20068;-81
2022/05/16 11:35:44;;;;;;;9.82;2.78;;;26.20;1.00;;;;;;5059124;28;20079;-80
2022/05/16 11:38:28;;;;;;;11.77;2.10;;;26.50;1.00;;;;;;5059419;28;20370;-81
2022/05/16 11:41:34;;;;;;;17.15;2.35;;;26.30;1.00;;;;;;5059652;28;20049;-80
2022/05/16 11:44:28;;;;;;;8.07;2.35;;;25.60;1.00;;;;;;5062696;28;20048;-81
2022/05/16 11:47:06;;;;;;;5.43;1.85;;;25.00;1.00;;;;;;5024310;28;20421;-80
2022/05/16 11:49:57;;;;;;;8.63;2.40;;;24.50;1.00;;;;;;5057901;28;20128;-80
2022/05/16 11:52:50;;;;;;;7.70;2.50;;;24.40;1.00;;;;;;5061054;28;20068;-80
2022/05/16 12:01:05;;;;;;;8.02;2.17;;;24.90;1.00;;;;;;5064757;28;20064;-80
2022/05/16 12:03:42;;;;;;;10.55;3.08;;;24.90;1.00;;;;;;5061400;28;20563;-80
2022/05/16 12:06:31;;;;;;;12.77;3.10;;;24.60;1.00;;;;;;5062323;28;20079;-80
2022/05/16 12:09:38;;;;;;;7.05;3.03;;;24.40;1.00;;;;;;5062641;28;20053;-80
2022/05/16 12:12:11;;;;;;;9.93;2.78;;;23.90;1.00;;;;;;5062271;28;20060;-80
2022/05/16 12:14:38;;;;;;;8.45;3.60;;;23.50;2.90;;;;;;5061131;28;20131;-81
2022/05/16 12:17:06;;;;;;;12.10;3.10;;;23.50;4.00;;;;;;5061361;28;20428;-80
2022/05/16 12:19:34;;;;;;;9.98;3.58;;;23.70;4.10;;;;;;5062548;28;20124;-80
2022/05/16 12:22:12;;;;;;;9.95;3.20;;;23.90;5.00;;;;;;5066689;28;20067;-79
2022/05/16 12:24:53;;;;;;;6.65;2.28;;;24.20;1.60;;;;;;5063963;28;20045;-80
2022/05/16 12:27:34;;;;;;;9.40;3.00;;;24.40;1.00;;;;;;5061741;28;20385;-80
2022/05/16 12:30:02;;;;;;;7.00;2.53;;;24.60;1.00;;;;;;5059590;28;20052;-80
2022/05/16 12:32:31;;;;;;;12.77;3.45;;;24.70;1.00;;;;;;5060991;28;20064;-80
2022/05/16 12:35:03;;;;;;;10.68;3.83;;;24.80;1.00;;;;;;5063417;28;20377;-80
2022/05/16 12:37:29;;;;;;;10.80;2.97;;;24.90;1.00;;;;;;5060418;28;20516;-80
2022/05/16 12:40:23;;;;;;;11.88;3.10;;;24.90;1.00;;;;;;5060310;28;20045;-80
2022/05/16 12:43:37;;;;;;;8.70;3.28;;;25.00;1.00;;;;;;5061230;28;20049;-80
2022/05/16 12:46:42;;;;;;;11.95;3.30;;;25.00;1.00;;;;;;5060713;28;20040;-80
2022/05/16 12:49:41;;;;;;;13.70;3.47;;;25.00;1.00;;;;;;5063002;28;20381;-80
2022/05/16 12:52:44;;;;;;;12.70;4.57;;;25.30;1.00;;;;;;5059824;28;20112;-80
2022/05/16 12:55:49;;;;;;;10.93;3.03;;;25.40;1.00;;;;;;5060169;28;20073;-80
2022/05/16 12:58:25;;;;;;;11.45;3.67;;;25.90;1.00;;;;;;5060741;28;20068;-80
2022/05/16 13:01:14;;;;;;;11.52;3.20;;;26.40;1.00;;;;;;5059542;28;20509;-80
2022/05/16 13:04:15;;;;;;;7.97;3.33;;;26.80;1.00;;;;;;5059436;28;20120;-80
2022/05/16 13:06:47;;;;;;;10.77;3.20;;;27.80;1.00;;;;;;5059681;28;20551;-80
2022/05/16 13:09:43;;;;;;;13.23;3.45;;;27.50;1.00;;;;;;5061870;28;20052;-80
2022/05/16 13:12:20;;;;;;;10.05;3.35;;;28.10;1.00;;;;;;5063655;28;20049;-80
2022/05/16 13:15:16;;;;;;;13.95;4.28;;;28.10;1.00;;;;;;5063013;28;20049;-80
2022/05/16 13:17:50;;;;;;;11.75;3.42;;;28.20;1.00;;;;;;5059784;28;20048;-80
2022/05/16 13:20:24;;;;;;;11.90;3.88;;;28.40;1.00;;;;;;5064784;28;20048;-80
2022/05/16 13:22:50;;;;;;;15.75;3.42;;;28.50;1.00;;;;;;5066244;28;20045;-80
2022/05/16 13:25:22;;;;;;;8.50;3.15;;;28.30;1.00;;;;;;5062162;28;20045;-80
2022/05/16 13:30:47;;;;;;;12.57;3.55;;;28.00;1.00;;;;;;5063436;28;20056;-80
2022/05/16 13:33:26;;;;;;;13.48;3.85;;;27.90;1.00;;;;;;5066337;28;20098;-82
2022/05/16 13:35:52;;;;;;;15.25;3.42;;;27.40;1.00;;;;;;5063459;28;20113;-80
2022/05/16 13:38:17;;;;;;;8.57;3.33;;;27.10;1.00;;;;;;5065652;28;20041;-82
2022/05/16 13:40:45;;;;;;;11.77;3.55;;;26.80;1.00;;;;;;5063843;28;20049;-81
2022/05/16 13:43:20;;;;;;;8.63;3.33;;;26.60;1.00;;;;;;5063448;28;20473;-80
2022/05/16 13:45:46;;;;;;;11.98;4.55;;;26.40;1.00;;;;;;5063977;28;20485;-79